sensor_id;sensor_type;location;lat;lon;timestamp;pressure;altitude;pressure_sealevel;temperature;humidity
35248;BME280;21380;52.194;20.520;2022-11-20T00:01:17;100344.69;;;13.40;37.39
35248;BME280;21380;52.194;20.520;2022-11-20T00:03:44;100341.03;;;13.34;37.25
35248;BME280;21380;52.194;20.520;2022-11-20T00:06:12;100338.44;;;13.34;37.49
35248;BME280;21380;52.194;20.520;2022-11-20T00:08:39;100347.25;;;13.39;37.59
35248;BME280;21380;52.194;20.520;2022-11-20T00:11:07;100353.31;;;13.39;37.60
35248;BME280;21380;52.194;20.520;2022-11-20T00:13:33;100347.25;;;13.39;37.50
35248;BME280;21380;52.194;20.520;2022-11-20T00:16:01;100334.88;;;13.30;37.45
35248;BME280;21380;52.194;20.520;2022-11-20T00:18:27;100348.84;;;13.35;37.52
35248;BME280;21380;52.194;20.520;2022-11-20T00:20:54;100349.81;;;13.37;37.75
35248;BME280;21380;52.194;20.520;2022-11-20T00:23:25;100352.44;;;13.39;37.55
35248;BME280;21380;52.194;20.520;2022-11-20T00:25:51;100346.41;;;13.38;37.80
35248;BME280;21380;52.194;20.520;2022-11-20T00:28:17;100335.84;;;13.34;37.53
35248;BME280;21380;52.194;20.520;2022-11-20T00:30:43;100335.84;;;13.34;37.59
35248;BME280;21380;52.194;20.520;2022-11-20T00:33:09;100345.50;;;13.38;37.59
35248;BME280;21380;52.194;20.520;2022-11-20T00:35:34;100352.41;;;13.37;37.59
35248;BME280;21380;52.194;20.520;2022-11-20T00:38:00;100335.03;;;13.35;37.44
35248;BME280;21380;52.194;20.520;2022-11-20T00:40:26;100337.66;;;13.36;37.53
35248;BME280;21380;52.194;20.520;2022-11-20T00:42:52;100338.53;;;13.37;37.70
35248;BME280;21380;52.194;20.520;2022-11-20T00:45:18;100323.69;;;13.31;37.84
35248;BME280;21380;52.194;20.520;2022-11-20T00:47:44;100322.00;;;13.33;37.61
35248;BME280;21380;52.194;20.520;2022-11-20T00:50:09;100328.13;;;13.35;37.70
35248;BME280;21380;52.194;20.520;2022-11-20T00:52:35;100322.91;;;13.34;37.55
35248;BME280;21380;52.194;20.520;2022-11-20T00:55:01;100323.78;;;13.34;37.87
35248;BME280;21380;52.194;20.520;2022-11-20T00:57:27;100310.81;;;13.34;37.61
35248;BME280;21380;52.194;20.520;2022-11-20T00:59:53;100314.31;;;13.35;37.60
35248;BME280;21380;52.194;20.520;2022-11-20T01:02:19;100308.06;;;13.28;37.68
35248;BME280;21380;52.194;20.520;2022-11-20T01:04:45;100316.91;;;13.35;37.65
35248;BME280;21380;52.194;20.520;2022-11-20T01:07:11;100318.56;;;13.33;37.79
35248;BME280;21380;52.194;20.520;2022-11-20T01:09:37;100328.94;;;13.34;37.78
35248;BME280;21380;52.194;20.520;2022-11-20T01:12:03;100325.50;;;13.34;37.90
35248;BME280;21380;52.194;20.520;2022-11-20T01:14:29;100327.19;;;13.33;37.70
35248;BME280;21380;52.194;20.520;2022-11-20T01:16:55;100330.66;;;13.32;37.78
35248;BME280;21380;52.194;20.520;2022-11-20T01:19:22;100328.06;;;13.32;37.78
35248;BME280;21380;52.194;20.520;2022-11-20T01:21:51;100327.97;;;13.30;37.78
35248;BME280;21380;52.194;20.520;2022-11-20T01:24:19;100321.94;;;13.30;37.85
35248;BME280;21380;52.194;20.520;2022-11-20T01:26:48;100317.63;;;13.30;37.86
35248;BME280;21380;52.194;20.520;2022-11-20T01:29:17;100302.66;;;13.20;37.63
35248;BME280;21380;52.194;20.520;2022-11-20T01:31:44;100319.34;;;13.30;37.85
35248;BME280;21380;52.194;20.520;2022-11-20T01:34:13;100319.34;;;13.30;37.85
35248;BME280;21380;52.194;20.520;2022-11-20T01:36:40;100311.56;;;13.30;37.79
35248;BME280;21380;52.194;20.520;2022-11-20T01:39:15;100315.91;;;13.29;37.73
35248;BME280;21380;52.194;20.520;2022-11-20T01:41:42;100310.72;;;13.29;37.94
35248;BME280;21380;52.194;20.520;2022-11-20T01:47:14;100307.97;;;13.25;37.83
35248;BME280;21380;52.194;20.520;2022-11-20T01:50:01;100306.28;;;13.27;37.86
35248;BME280;21380;52.194;20.520;2022-11-20T01:52:55;100318.41;;;13.28;37.80
35248;BME280;21380;52.194;20.520;2022-11-20T01:55:24;100322.72;;;13.27;37.74
35248;BME280;21380;52.194;20.520;2022-11-20T01:57:51;100321.84;;;13.27;37.88
35248;BME280;21380;52.194;20.520;2022-11-20T02:00:19;100321.84;;;13.27;37.89
35248;BME280;21380;52.194;20.520;2022-11-20T02:02:56;100321.84;;;13.27;38.03
35248;BME280;21380;52.194;20.520;2022-11-20T02:05:27;100311.34;;;13.21;38.02
35248;BME280;21380;52.194;20.520;2022-11-20T02:07:56;100307.97;;;13.25;37.99
35248;BME280;21380;52.194;20.520;2022-11-20T02:10:23;100299.25;;;13.21;37.91
35248;BME280;21380;52.194;20.520;2022-11-20T02:12:49;100305.44;;;13.26;38.03
35248;BME280;21380;52.194;20.520;2022-11-20T02:15:34;100299.38;;;13.26;37.91
35248;BME280;21380;52.194;20.520;2022-11-20T02:18:01;100296.78;;;13.26;37.98
35248;BME280;21380;52.194;20.520;2022-11-20T02:20:27;100299.38;;;13.26;37.99
35248;BME280;21380;52.194;20.520;2022-11-20T02:25:28;100302.81;;;13.25;38.18
35248;BME280;21380;52.194;20.520;2022-11-20T02:27:56;100307.16;;;13.26;38.22
35248;BME280;21380;52.194;20.520;2022-11-20T02:30:22;100310.56;;;13.25;37.97
35248;BME280;21380;52.194;20.520;2022-11-20T02:32:49;100313.16;;;13.25;38.00
35248;BME280;21380;52.194;20.520;2022-11-20T02:37:44;100312.22;;;13.23;37.91
35248;BME280;21380;52.194;20.520;2022-11-20T02:40:11;100298.25;;;13.16;37.92
35248;BME280;21380;52.194;20.520;2022-11-20T02:42:37;100309.59;;;13.21;37.88
35248;BME280;21380;52.194;20.520;2022-11-20T02:45:07;100301.69;;;13.17;37.61
35248;BME280;21380;52.194;20.520;2022-11-20T02:47:33;100300.88;;;13.18;37.73
35248;BME280;21380;52.194;20.520;2022-11-20T02:49:59;100306.16;;;13.21;37.93
35248;BME280;21380;52.194;20.520;2022-11-20T02:52:25;100304.41;;;13.20;38.04
35248;BME280;21380;52.194;20.520;2022-11-20T02:54:52;100311.25;;;13.19;37.96
35248;BME280;21380;52.194;20.520;2022-11-20T02:57:18;100300.00;;;13.17;37.92
35248;BME280;21380;52.194;20.520;2022-11-20T02:59:44;100305.19;;;13.17;37.92
35248;BME280;21380;52.194;20.520;2022-11-20T03:02:10;100306.91;;;13.18;37.85
35248;BME280;21380;52.194;20.520;2022-11-20T03:04:36;100306.06;;;13.18;38.00
35248;BME280;21380;52.194;20.520;2022-11-20T03:07:02;100299.13;;;13.17;37.71
35248;BME280;21380;52.194;20.520;2022-11-20T03:09:53;100297.34;;;13.16;37.96
35248;BME280;21380;52.194;20.520;2022-11-20T03:12:19;100297.34;;;13.16;37.72
35248;BME280;21380;52.194;20.520;2022-11-20T03:14:44;100293.91;;;13.15;37.81
35248;BME280;21380;52.194;20.520;2022-11-20T03:17:10;100293.03;;;13.14;37.91
35248;BME280;21380;52.194;20.520;2022-11-20T03:19:36;100288.50;;;13.07;37.89
35248;BME280;21380;52.194;20.520;2022-11-20T03:22:02;100299.88;;;13.12;37.90
35248;BME280;21380;52.194;20.520;2022-11-20T03:24:28;100287.69;;;13.08;38.02
35248;BME280;21380;52.194;20.520;2022-11-20T03:26:54;100300.69;;;13.11;37.69
35248;BME280;21380;52.194;20.520;2022-11-20T03:29:20;100283.22;;;13.04;37.61
35248;BME280;21380;52.194;20.520;2022-11-20T03:31:46;100284.94;;;13.04;37.71
35248;BME280;21380;52.194;20.520;2022-11-20T03:34:12;100297.19;;;13.09;37.78
35248;BME280;21380;52.194;20.520;2022-11-20T03:36:42;100292.00;;;13.09;37.85
35248;BME280;21380;52.194;20.520;2022-11-20T03:39:08;100281.59;;;13.08;37.84
35248;BME280;21380;52.194;20.520;2022-11-20T03:41:39;100293.72;;;13.09;37.82
35248;BME280;21380;52.194;20.520;2022-11-20T03:44:07;100285.91;;;13.07;37.72
35248;BME280;21380;52.194;20.520;2022-11-20T03:46:34;100274.59;;;13.04;37.77
35248;BME280;21380;52.194;20.520;2022-11-20T03:49:00;100277.22;;;13.05;37.87
35248;BME280;21380;52.194;20.520;2022-11-20T03:51:28;100281.47;;;13.03;37.48
35248;BME280;21380;52.194;20.520;2022-11-20T03:53:56;100291.88;;;13.05;37.67
35248;BME280;21380;52.194;20.520;2022-11-20T03:56:25;100300.53;;;13.05;37.63
35248;BME280;21380;52.194;20.520;2022-11-20T03:58:51;100298.75;;;13.04;37.71
35248;BME280;21380;52.194;20.520;2022-11-20T04:01:19;100298.75;;;13.04;37.55
35248;BME280;21380;52.194;20.520;2022-11-20T04:03:46;100300.44;;;13.02;37.45
35248;BME280;21380;52.194;20.520;2022-11-20T04:06:18;100289.13;;;12.98;37.91
35248;BME280;21380;52.194;20.520;2022-11-20T04:08:44;100297.88;;;13.02;37.81
35248;BME280;21380;52.194;20.520;2022-11-20T04:11:16;100293.50;;;13.01;37.70
35248;BME280;21380;52.194;20.520;2022-11-20T04:13:46;100298.69;;;13.01;37.88
35248;BME280;21380;52.194;20.520;2022-11-20T04:16:13;100291.69;;;12.97;37.93
35248;BME280;21380;52.194;20.520;2022-11-20T04:18:39;100289.84;;;12.94;37.74
35248;BME280;21380;52.194;20.520;2022-11-20T04:21:06;100296.94;;;13.00;37.58
35248;BME280;21380;52.194;20.520;2022-11-20T04:23:32;100296.06;;;13.00;37.64
35248;BME280;21380;52.194;20.520;2022-11-20T04:26:09;100287.25;;;12.94;37.74
35248;BME280;21380;52.194;20.520;2022-11-20T04:28:38;100293.38;;;12.96;37.57
35248;BME280;21380;52.194;20.520;2022-11-20T04:31:09;100295.16;;;12.99;37.69
35248;BME280;21380;52.194;20.520;2022-11-20T04:33:36;100289.13;;;12.98;37.61
35248;BME280;21380;52.194;20.520;2022-11-20T04:36:05;100287.38;;;12.97;37.66
35248;BME280;21380;52.194;20.520;2022-11-20T04:38:32;100280.44;;;12.96;37.73
35248;BME280;21380;52.194;20.520;2022-11-20T04:41:04;100283.94;;;12.98;37.75
35248;BME280;21380;52.194;20.520;2022-11-20T04:43:31;100282.16;;;12.96;37.43
35248;BME280;21380;52.194;20.520;2022-11-20T04:45:59;100291.69;;;12.97;37.43
35248;BME280;21380;52.194;20.520;2022-11-20T04:48:26;100283.13;;;13.00;37.47
35248;BME280;21380;52.194;20.520;2022-11-20T04:50:53;100290.00;;;12.99;37.65
35248;BME280;21380;52.194;20.520;2022-11-20T04:53:20;100283.91;;;12.97;37.59
35248;BME280;21380;52.194;20.520;2022-11-20T04:55:46;100272.59;;;12.93;37.63
35248;BME280;21380;52.194;20.520;2022-11-20T04:58:12;100281.41;;;13.00;37.66
35248;BME280;21380;52.194;20.520;2022-11-20T05:00:39;100277.94;;;13.00;37.39
35248;BME280;21380;52.194;20.520;2022-11-20T05:03:05;100273.63;;;13.00;37.74
35248;BME280;21380;52.194;20.520;2022-11-20T05:05:32;100266.69;;;12.99;37.73
35248;BME280;21380;52.194;20.520;2022-11-20T05:07:58;100266.72;;;13.01;37.73
35248;BME280;21380;52.194;20.520;2022-11-20T05:10:25;100259.81;;;13.00;37.55
35248;BME280;21380;52.194;20.520;2022-11-20T05:12:52;100249.47;;;13.00;37.75
35248;BME280;21380;52.194;20.520;2022-11-20T05:15:18;100254.66;;;13.01;37.62
35248;BME280;21380;52.194;20.520;2022-11-20T05:17:48;100252.09;;;13.01;37.64
35248;BME280;21380;52.194;20.520;2022-11-20T05:20:15;100251.19;;;13.01;37.74
35248;BME280;21380;52.194;20.520;2022-11-20T05:22:40;100244.28;;;13.00;37.81
35248;BME280;21380;52.194;20.520;2022-11-20T05:25:06;100254.66;;;13.01;37.84
35248;BME280;21380;52.194;20.520;2022-11-20T05:27:32;100253.84;;;13.02;37.70
35248;BME280;21380;52.194;20.520;2022-11-20T05:29:58;100246.75;;;12.96;37.62
35248;BME280;21380;52.194;20.520;2022-11-20T05:32:24;100257.28;;;13.03;37.85
35248;BME280;21380;52.194;20.520;2022-11-20T05:34:52;100250.31;;;13.00;37.83
35248;BME280;21380;52.194;20.520;2022-11-20T05:37:17;100257.31;;;13.04;37.98
35248;BME280;21380;52.194;20.520;2022-11-20T05:39:43;100237.34;;;12.98;37.66
35248;BME280;21380;52.194;20.520;2022-11-20T05:42:09;100240.91;;;13.02;37.83
35248;BME280;21380;52.194;20.520;2022-11-20T05:44:54;100227.78;;;12.96;38.00
35248;BME280;21380;52.194;20.520;2022-11-20T05:47:20;100234.03;;;13.04;37.74
35248;BME280;21380;52.194;20.520;2022-11-20T05:49:46;100227.88;;;13.01;37.65
35248;BME280;21380;52.194;20.520;2022-11-20T05:52:12;100234.84;;;13.03;37.95
35248;BME280;21380;52.194;20.520;2022-11-20T05:54:38;100227.09;;;13.03;37.80
35248;BME280;21380;52.194;20.520;2022-11-20T05:57:03;100232.25;;;13.03;37.69
35248;BME280;21380;52.194;20.520;2022-11-20T05:59:29;100220.97;;;13.00;37.88
35248;BME280;21380;52.194;20.520;2022-11-20T06:01:55;100225.38;;;13.04;37.85
35248;BME280;21380;52.194;20.520;2022-11-20T06:04:22;100220.09;;;13.01;37.96
35248;BME280;21380;52.194;20.520;2022-11-20T06:06:48;100226.25;;;13.04;37.95
35248;BME280;21380;52.194;20.520;2022-11-20T06:09:13;100234.84;;;13.03;37.65
35248;BME280;21380;52.194;20.520;2022-11-20T06:11:39;100235.75;;;13.04;37.88
35248;BME280;21380;52.194;20.520;2022-11-20T06:14:05;100240.03;;;13.03;37.83
35248;BME280;21380;52.194;20.520;2022-11-20T06:16:31;100240.03;;;13.03;37.82
35248;BME280;21380;52.194;20.520;2022-11-20T06:18:57;100257.31;;;13.04;37.71
35248;BME280;21380;52.194;20.520;2022-11-20T06:21:23;100245.94;;;12.97;37.75
35248;BME280;21380;52.194;20.520;2022-11-20T06:23:50;100249.34;;;12.96;37.95
35248;BME280;21380;52.194;20.520;2022-11-20T06:26:27;100250.31;;;13.00;37.96
35248;BME280;21380;52.194;20.520;2022-11-20T06:28:53;100250.38;;;13.03;37.81
35248;BME280;21380;52.194;20.520;2022-11-20T06:31:24;100239.97;;;13.00;37.86
35248;BME280;21380;52.194;20.520;2022-11-20T06:33:52;100226.00;;;12.95;37.93
35248;BME280;21380;52.194;20.520;2022-11-20T06:36:20;100235.72;;;13.02;37.61
35248;BME280;21380;52.194;20.520;2022-11-20T06:38:47;100235.72;;;13.02;37.77
35248;BME280;21380;52.194;20.520;2022-11-20T06:41:16;100229.53;;;12.97;37.71
35248;BME280;21380;52.194;20.520;2022-11-20T06:43:42;100231.38;;;13.01;37.91
35248;BME280;21380;52.194;20.520;2022-11-20T06:46:09;100226.16;;;13.00;37.50
35248;BME280;21380;52.194;20.520;2022-11-20T06:48:36;100232.13;;;12.97;37.79
35248;BME280;21380;52.194;20.520;2022-11-20T06:51:06;100245.22;;;13.03;37.65
35248;BME280;21380;52.194;20.520;2022-11-20T06:53:33;100230.28;;;12.94;38.02
35248;BME280;21380;52.194;20.520;2022-11-20T06:55:59;100229.47;;;12.95;37.73
35248;BME280;21380;52.194;20.520;2022-11-20T06:58:30;100239.03;;;12.98;37.76
35248;BME280;21380;52.194;20.520;2022-11-20T07:01:01;100238.19;;;12.99;37.67
35248;BME280;21380;52.194;20.520;2022-11-20T07:03:27;100240.91;;;13.02;37.78
35248;BME280;21380;52.194;20.520;2022-11-20T07:05:57;100232.13;;;12.97;37.65
35248;BME280;21380;52.194;20.520;2022-11-20T07:08:24;100230.41;;;12.97;37.71
35248;BME280;21380;52.194;20.520;2022-11-20T07:10:50;100233.78;;;12.95;37.70
35248;BME280;21380;52.194;20.520;2022-11-20T07:13:16;100239.09;;;13.00;37.80
35248;BME280;21380;52.194;20.520;2022-11-20T07:15:42;100237.31;;;12.97;37.53
35248;BME280;21380;52.194;20.520;2022-11-20T07:18:08;100237.41;;;13.02;37.61
35248;BME280;21380;52.194;20.520;2022-11-20T07:20:34;100241.72;;;13.01;37.75
35248;BME280;21380;52.194;20.520;2022-11-20T07:23:00;100240.94;;;13.04;37.86
35248;BME280;21380;52.194;20.520;2022-11-20T07:25:27;100235.72;;;13.02;37.80
35248;BME280;21380;52.194;20.520;2022-11-20T07:27:57;100232.22;;;13.02;37.70
35248;BME280;21380;52.194;20.520;2022-11-20T07:30:24;100227.09;;;13.03;37.70
35248;BME280;21380;52.194;20.520;2022-11-20T07:32:53;100224.56;;;13.05;37.75
35248;BME280;21380;52.194;20.520;2022-11-20T07:35:19;100216.72;;;13.03;37.71
35248;BME280;21380;52.194;20.520;2022-11-20T07:37:46;100213.31;;;13.04;37.54
35248;BME280;21380;52.194;20.520;2022-11-20T07:40:13;100211.53;;;13.03;37.69
35248;BME280;21380;52.194;20.520;2022-11-20T07:42:39;100209.03;;;13.05;37.64
35248;BME280;21380;52.194;20.520;2022-11-20T07:45:05;100196.88;;;13.02;37.49
35248;BME280;21380;52.194;20.520;2022-11-20T07:47:37;100212.47;;;13.05;37.48
35248;BME280;21380;52.194;20.520;2022-11-20T07:50:03;100190.72;;;12.98;37.76
35248;BME280;21380;52.194;20.520;2022-11-20T07:52:29;100202.16;;;13.07;37.58
35248;BME280;21380;52.194;20.520;2022-11-20T07:54:54;100201.94;;;12.99;37.85
35248;BME280;21380;52.194;20.520;2022-11-20T07:57:20;100211.69;;;13.08;37.61
35248;BME280;21380;52.194;20.520;2022-11-20T07:59:46;100207.41;;;13.08;37.61
35248;BME280;21380;52.194;20.520;2022-11-20T08:02:12;100209.13;;;13.09;37.78
35248;BME280;21380;52.194;20.520;2022-11-20T08:04:38;100199.63;;;13.08;37.67
35248;BME280;21380;52.194;20.520;2022-11-20T08:07:04;100201.25;;;13.05;37.72
35248;BME280;21380;52.194;20.520;2022-11-20T08:09:30;100214.41;;;13.12;37.64
35248;BME280;21380;52.194;20.520;2022-11-20T08:11:56;100184.66;;;12.98;37.66
35248;BME280;21380;52.194;20.520;2022-11-20T08:14:40;100198.88;;;13.12;37.65
35248;BME280;21380;52.194;20.520;2022-11-20T08:17:06;100200.63;;;13.13;37.72
35248;BME280;21380;52.194;20.520;2022-11-20T08:19:32;100199.78;;;13.14;37.72
35248;BME280;21380;52.194;20.520;2022-11-20T08:21:58;100201.50;;;13.16;37.65
35248;BME280;21380;52.194;20.520;2022-11-20T08:24:24;100197.22;;;13.16;37.68
35248;BME280;21380;52.194;20.520;2022-11-20T08:26:51;100184.13;;;13.10;37.76
35248;BME280;21380;52.194;20.520;2022-11-20T08:29:18;100186.03;;;13.17;37.72
35248;BME280;21380;52.194;20.520;2022-11-20T08:31:45;100183.47;;;13.19;37.61
35248;BME280;21380;52.194;20.520;2022-11-20T08:34:30;100184.34;;;13.19;37.75
35248;BME280;21380;52.194;20.520;2022-11-20T08:36:56;100172.13;;;13.13;37.79
35248;BME280;21380;52.194;20.520;2022-11-20T08:39:22;100178.34;;;13.20;37.44
35248;BME280;21380;52.194;20.520;2022-11-20T08:41:48;100184.44;;;13.22;37.59
35248;BME280;21380;52.194;20.520;2022-11-20T08:44:14;100177.50;;;13.21;37.70
35248;BME280;21380;52.194;20.520;2022-11-20T08:46:41;100181.03;;;13.23;37.81
35248;BME280;21380;52.194;20.520;2022-11-20T08:49:10;100167.97;;;13.20;37.59
35248;BME280;21380;52.194;20.520;2022-11-20T08:51:37;100149.81;;;13.19;37.56
35248;BME280;21380;52.194;20.520;2022-11-20T08:54:04;100169.84;;;13.26;37.73
35248;BME280;21380;52.194;20.520;2022-11-20T08:56:31;100159.44;;;13.24;37.77
35248;BME280;21380;52.194;20.520;2022-11-20T08:58:57;100154.34;;;13.27;37.66
35248;BME280;21380;52.194;20.520;2022-11-20T09:01:25;100157.81;;;13.28;38.11
35248;BME280;21380;52.194;20.520;2022-11-20T09:03:52;100158.72;;;13.30;38.01
35248;BME280;21380;52.194;20.520;2022-11-20T09:06:18;100154.31;;;13.26;38.36
35248;BME280;21380;52.194;20.520;2022-11-20T09:08:44;100159.59;;;13.30;37.80
35248;BME280;21380;52.194;20.520;2022-11-20T09:11:10;100153.44;;;13.27;37.88
35248;BME280;21380;52.194;20.520;2022-11-20T09:13:36;100164.84;;;13.32;37.65
35248;BME280;21380;52.194;20.520;2022-11-20T09:16:07;100147.41;;;13.26;37.78
35248;BME280;21380;52.194;20.520;2022-11-20T09:18:34;100151.81;;;13.30;38.00
35248;BME280;21380;52.194;20.520;2022-11-20T09:21:06;100149.31;;;13.34;37.84
35248;BME280;21380;52.194;20.520;2022-11-20T09:23:35;100148.50;;;13.35;37.84
35248;BME280;21380;52.194;20.520;2022-11-20T09:26:05;100147.59;;;13.34;38.19
35248;BME280;21380;52.194;20.520;2022-11-20T09:28:32;100136.38;;;13.34;37.93
35248;BME280;21380;52.194;20.520;2022-11-20T09:30:58;100140.75;;;13.36;37.90
35248;BME280;21380;52.194;20.520;2022-11-20T09:33:24;100138.16;;;13.36;38.22
35248;BME280;21380;52.194;20.520;2022-11-20T09:35:50;100135.63;;;13.38;37.82
35248;BME280;21380;52.194;20.520;2022-11-20T09:38:16;100123.38;;;13.32;37.75
35248;BME280;21380;52.194;20.520;2022-11-20T09:46:50;100101.72;;;13.30;37.97
35248;BME280;21380;52.194;20.520;2022-11-20T09:55:13;100130.59;;;13.44;37.80
35248;BME280;21380;52.194;20.520;2022-11-20T09:57:42;100120.09;;;13.38;37.89
35248;BME280;21380;52.194;20.520;2022-11-20T10:00:11;100119.25;;;13.39;37.77
35248;BME280;21380;52.194;20.520;2022-11-20T10:05:24;100126.38;;;13.48;38.20
35248;BME280;21380;52.194;20.520;2022-11-20T10:08:14;100125.53;;;13.49;38.17
35248;BME280;21380;52.194;20.520;2022-11-20T10:10:46;100121.22;;;13.49;38.02
35248;BME280;21380;52.194;20.520;2022-11-20T10:16:30;100118.66;;;13.51;37.99
35248;BME280;21380;52.194;20.520;2022-11-20T10:25:14;100113.47;;;13.51;38.22
35248;BME280;21380;52.194;20.520;2022-11-20T10:30:44;100114.38;;;13.51;38.13
35248;BME280;21380;52.194;20.520;2022-11-20T10:33:21;100101.38;;;13.50;38.02
35248;BME280;21380;52.194;20.520;2022-11-20T10:36:00;100105.75;;;13.52;38.15
35248;BME280;21380;52.194;20.520;2022-11-20T10:38:37;100109.22;;;13.53;37.73
35248;BME280;21380;52.194;20.520;2022-11-20T10:41:05;100104.03;;;13.53;37.84
35248;BME280;21380;52.194;20.520;2022-11-20T10:44:22;100108.34;;;13.52;38.04
35248;BME280;21380;52.194;20.520;2022-11-20T10:47:15;100107.56;;;13.56;40.92
35248;BME280;21380;52.194;20.520;2022-11-20T10:49:43;100107.63;;;13.59;41.36
35248;BME280;21380;52.194;20.520;2022-11-20T10:58:13;100086.88;;;13.58;39.77
35248;BME280;21380;52.194;20.520;2022-11-20T11:00:39;100073.00;;;13.56;39.20
35248;BME280;21380;52.194;20.520;2022-11-20T11:03:25;100089.56;;;13.62;39.11
35248;BME280;21380;52.194;20.520;2022-11-20T11:08:40;100087.84;;;13.63;39.07
35248;BME280;21380;52.194;20.520;2022-11-20T11:11:20;100083.50;;;13.62;38.74
35248;BME280;21380;52.194;20.520;2022-11-20T11:13:46;100093.84;;;13.62;38.75
35248;BME280;21380;52.194;20.520;2022-11-20T11:16:26;100089.47;;;13.59;38.86
35248;BME280;21380;52.194;20.520;2022-11-20T11:19:07;100083.38;;;13.56;38.77
35248;BME280;21380;52.194;20.520;2022-11-20T11:21:37;100090.41;;;13.61;38.75
35248;BME280;21380;52.194;20.520;2022-11-20T11:24:28;100084.34;;;13.61;38.43
35248;BME280;21380;52.194;20.520;2022-11-20T11:27:00;100074.81;;;13.58;38.75
35248;BME280;21380;52.194;20.520;2022-11-20T11:29:35;100069.53;;;13.55;38.50
35248;BME280;21380;52.194;20.520;2022-11-20T11:32:06;100073.06;;;13.59;38.43
35248;BME280;21380;52.194;20.520;2022-11-20T11:34:33;100072.22;;;13.60;38.17
35248;BME280;21380;52.194;20.520;2022-11-20T11:37:00;100059.25;;;13.58;38.50
35248;BME280;21380;52.194;20.520;2022-11-20T11:39:30;100060.13;;;13.60;38.31
35248;BME280;21380;52.194;20.520;2022-11-20T11:41:58;100066.22;;;13.61;38.08
35248;BME280;21380;52.194;20.520;2022-11-20T11:44:25;100068.81;;;13.61;38.34
35248;BME280;21380;52.194;20.520;2022-11-20T11:47:22;100062.69;;;13.59;38.49
35248;BME280;21380;52.194;20.520;2022-11-20T11:50:22;100055.88;;;13.62;38.33
35248;BME280;21380;52.194;20.520;2022-11-20T12:06:36;100052.44;;;13.64;38.31
35248;BME280;21380;52.194;20.520;2022-11-20T12:09:09;100051.63;;;13.65;38.02
35248;BME280;21380;52.194;20.520;2022-11-20T12:11:45;100029.81;;;13.56;38.34
35248;BME280;21380;52.194;20.520;2022-11-20T12:16:50;100030.88;;;13.65;38.33
35248;BME280;21380;52.194;20.520;2022-11-20T12:19:18;100024.81;;;13.66;38.18
35248;BME280;21380;52.194;20.520;2022-11-20T12:32:42;100023.19;;;13.71;39.09
35248;BME280;21380;52.194;20.520;2022-11-20T12:35:44;100009.41;;;13.72;38.63
35248;BME280;21380;52.194;20.520;2022-11-20T12:58:53;99990.44;;;13.74;38.31
35248;BME280;21380;52.194;20.520;2022-11-20T13:04:39;99981.81;;;13.74;38.04
35248;BME280;21380;52.194;20.520;2022-11-20T13:07:12;99979.19;;;13.72;38.21
35248;BME280;21380;52.194;20.520;2022-11-20T13:09:48;99978.34;;;13.73;38.42
35248;BME280;21380;52.194;20.520;2022-11-20T13:15:05;99986.13;;;13.73;38.15
35248;BME280;21380;52.194;20.520;2022-11-20T13:20:17;99972.22;;;13.70;38.09
35248;BME280;21380;52.194;20.520;2022-11-20T13:22:52;99981.81;;;13.74;38.16
35248;BME280;21380;52.194;20.520;2022-11-20T13:27:50;99970.56;;;13.73;38.36
35248;BME280;21380;52.194;20.520;2022-11-20T13:32:51;99965.31;;;13.70;38.22
35248;BME280;21380;52.194;20.520;2022-11-20T13:35:36;99947.13;;;13.67;37.95
35248;BME280;21380;52.194;20.520;2022-11-20T13:38:11;99959.31;;;13.73;38.03
35248;BME280;21380;52.194;20.520;2022-11-20T13:40:50;99959.31;;;13.73;38.43
35248;BME280;21380;52.194;20.520;2022-11-20T13:43:33;99955.88;;;13.72;38.13
35248;BME280;21380;52.194;20.520;2022-11-20T13:46:03;99952.44;;;13.73;38.18
35248;BME280;21380;52.194;20.520;2022-11-20T13:48:34;99948.94;;;13.73;38.33
35248;BME280;21380;52.194;20.520;2022-11-20T14:00:15;99941.16;;;13.71;38.27
35248;BME280;21380;52.194;20.520;2022-11-20T14:02:41;99935.97;;;13.71;38.19
35248;BME280;21380;52.194;20.520;2022-11-20T14:05:18;99937.63;;;13.69;38.07
35248;BME280;21380;52.194;20.520;2022-11-20T14:07:47;99941.97;;;13.70;38.37
35248;BME280;21380;52.194;20.520;2022-11-20T14:10:27;99941.16;;;13.71;38.22
35248;BME280;21380;52.194;20.520;2022-11-20T14:12:53;99935.03;;;13.68;38.38
35248;BME280;21380;52.194;20.520;2022-11-20T14:15:30;99941.13;;;13.70;38.38
35248;BME280;21380;52.194;20.520;2022-11-20T14:17:57;99934.97;;;13.65;38.37
35248;BME280;21380;52.194;20.520;2022-11-20T14:20:26;99935.88;;;13.68;38.30
35248;BME280;21380;52.194;20.520;2022-11-20T14:22:55;99930.66;;;13.65;38.28
35248;BME280;21380;52.194;20.520;2022-11-20T14:25:23;99930.66;;;13.65;38.14
35248;BME280;21380;52.194;20.520;2022-11-20T14:27:54;99934.19;;;13.69;38.47
35248;BME280;21380;52.194;20.520;2022-11-20T14:30:24;99935.88;;;13.68;38.27
35248;BME280;21380;52.194;20.520;2022-11-20T14:32:53;99930.66;;;13.65;38.39
35248;BME280;21380;52.194;20.520;2022-11-20T14:35:28;99931.56;;;13.67;38.29
35248;BME280;21380;52.194;20.520;2022-11-20T14:37:55;99930.66;;;13.65;38.28
35248;BME280;21380;52.194;20.520;2022-11-20T14:40:33;99930.69;;;13.68;38.55
35248;BME280;21380;52.194;20.520;2022-11-20T14:43:22;99933.28;;;13.67;38.42
35248;BME280;21380;52.194;20.520;2022-11-20T14:46:05;99928.09;;;13.67;38.38